MiSS Sarah — WDE9595 — position and weather

sailwx.info

Track history (hours):
 
Tides and Currents Weather Stations Pressure Air Temp Water Temp Dewpoint Dewpoint Depression Visibility Wind Speed Wind Dir Waves Ship Positions

MiSS Sarah

Owner: Higman Barge Lines, Inc, Orange, TX. More information available from US FCC via Universal Licensing System and Coast Guard Vessel Documentation Center.

Last reported at 2015-Jan-29 12:29 UTC. Time now 2015-Jan-31 07:08 UTC.
Position N 29°47' W 092°11'.

Length 24 m; draft 2.6 m.

Type: Towing. MMSI: 367419040.

Date/timePositionNaut miles runAvg speedWind from/ knotsBaromVisibWave heightAir tempDewpointWater temp
2015-Jan-29 12:29N 29°47' W 092°11'12 3.0
2015-Jan-29 08:33N 29°50' W 091°58'5 4.6
2015-Jan-29 07:32N 29°51' W 091°53'4 3.8
2015-Jan-29 06:28N 29°48' W 091°49'2 2.5
2015-Jan-29 05:33N 29°46' W 091°47'4 4.2
2015-Jan-29 04:33N 29°46' W 091°42'4 4.5
2015-Jan-29 03:33N 29°46' W 091°37'5 4.9
2015-Jan-29 02:29N 29°43' W 091°32'5 4.9
2015-Jan-29 01:31N 29°41' W 091°27'5 4.7
2015-Jan-29 00:33N 29°39' W 091°23'5 4.9
2015-Jan-28 23:33N 29°39' W 091°17'5 4.9
2015-Jan-28 22:33N 29°41' W 091°12'3 2.9
2015-Jan-28 21:33N 29°41' W 091°09'3 3.3
2015-Jan-28 20:33N 29°38' W 091°07'4 3.8
2015-Jan-28 19:33N 29°37' W 091°02'4 3.9
2015-Jan-28 18:33N 29°36' W 090°58'14 3.3
2015-Jan-28 14:18N 29°37' W 090°42'1 1.0
2015-Jan-28 13:28N 29°37' W 090°41'42 2.8
2015-Jan-27 22:24N 29°55' W 089°58'23 1.7
2015-Jan-27 09:29N 29°59' W 090°24'0 0.0
2015-Jan-27 08:30N 29°59' W 090°24'0 0.0
2015-Jan-27 07:29N 29°59' W 090°24'0 0.1
2015-Jan-27 06:30N 29°59' W 090°24'0 0.0
2015-Jan-27 04:30N 29°59' W 090°24'11 0.3
2015-Jan-25 18:29N 29°55' W 090°12'5 3.5
2015-Jan-25 17:07N 29°55' W 090°07'4 4.8
2015-Jan-25 16:13N 29°57' W 090°03'5 5.3
2015-Jan-25 15:15N 29°55' W 089°58'55 1.6
2015-Jan-24 04:19N 29°34' W 090°56'5 6.2
2015-Jan-24 03:33N 29°37' W 090°60'4 4.2
2015-Jan-24 02:33N 29°38' W 091°04'4 3.7
2015-Jan-24 01:33N 29°40' W 091°08'4 3.8
2015-Jan-24 00:33N 29°41' W 091°12'4 4.1
2015-Jan-23 23:33N 29°39' W 091°16'5 4.8
2015-Jan-23 22:33N 29°39' W 091°21'6 5.5
2015-Jan-23 21:32N 29°40' W 091°27'6 5.4
2015-Jan-23 20:29N 29°43' W 091°33'  
2015-Jan-20 15:31N 29°49' W 093°59'0 0.0
2015-Jan-19 16:20N 29°49' W 093°59'0 0.0
2015-Jan-19 15:26N 29°49' W 093°59'1 0.7
2015-Jan-19 14:20N 29°49' W 093°59'  
Track history (hours):
 
Tides and Currents Weather Stations Pressure Air Temp Water Temp Dewpoint Dewpoint Depression Visibility Wind Speed Wind Dir Waves Ship Positions

MiSS Sarah

Owner: Higman Barge Lines, Inc, Orange, TX. More information available from US FCC via Universal Licensing System and Coast Guard Vessel Documentation Center.

Last reported at 2015-Jan-29 12:29 UTC. Time now 2015-Jan-31 07:08 UTC.
Position N 29°47' W 092°11'.

Length 24 m; draft 2.6 m.

Type: Towing. MMSI: 367419040.

Date/timePositionNaut miles runAvg speedWind from/ knotsBaromVisibWave heightAir tempDewpointWater temp
2015-Jan-29 12:29N 29°47' W 092°11'12 3.0
2015-Jan-29 08:33N 29°50' W 091°58'5 4.6
2015-Jan-29 07:32N 29°51' W 091°53'4 3.8
2015-Jan-29 06:28N 29°48' W 091°49'2 2.5
2015-Jan-29 05:33N 29°46' W 091°47'4 4.2
2015-Jan-29 04:33N 29°46' W 091°42'4 4.5
2015-Jan-29 03:33N 29°46' W 091°37'5 4.9
2015-Jan-29 02:29N 29°43' W 091°32'5 4.9
2015-Jan-29 01:31N 29°41' W 091°27'5 4.7
2015-Jan-29 00:33N 29°39' W 091°23'5 4.9
2015-Jan-28 23:33N 29°39' W 091°17'5 4.9
2015-Jan-28 22:33N 29°41' W 091°12'3 2.9
2015-Jan-28 21:33N 29°41' W 091°09'3 3.3
2015-Jan-28 20:33N 29°38' W 091°07'4 3.8
2015-Jan-28 19:33N 29°37' W 091°02'4 3.9
2015-Jan-28 18:33N 29°36' W 090°58'14 3.3
2015-Jan-28 14:18N 29°37' W 090°42'1 1.0
2015-Jan-28 13:28N 29°37' W 090°41'42 2.8
2015-Jan-27 22:24N 29°55' W 089°58'23 1.7
2015-Jan-27 09:29N 29°59' W 090°24'0 0.0
2015-Jan-27 08:30N 29°59' W 090°24'0 0.0
2015-Jan-27 07:29N 29°59' W 090°24'0 0.1
2015-Jan-27 06:30N 29°59' W 090°24'0 0.0
2015-Jan-27 04:30N 29°59' W 090°24'11 0.3
2015-Jan-25 18:29N 29°55' W 090°12'5 3.5
2015-Jan-25 17:07N 29°55' W 090°07'4 4.8
2015-Jan-25 16:13N 29°57' W 090°03'5 5.3
2015-Jan-25 15:15N 29°55' W 089°58'55 1.6
2015-Jan-24 04:19N 29°34' W 090°56'5 6.2
2015-Jan-24 03:33N 29°37' W 090°60'4 4.2
2015-Jan-24 02:33N 29°38' W 091°04'4 3.7
2015-Jan-24 01:33N 29°40' W 091°08'4 3.8
2015-Jan-24 00:33N 29°41' W 091°12'4 4.1
2015-Jan-23 23:33N 29°39' W 091°16'5 4.8
2015-Jan-23 22:33N 29°39' W 091°21'6 5.5
2015-Jan-23 21:32N 29°40' W 091°27'6 5.4
2015-Jan-23 20:29N 29°43' W 091°33'  
2015-Jan-20 15:31N 29°49' W 093°59'0 0.0
2015-Jan-19 16:20N 29°49' W 093°59'0 0.0
2015-Jan-19 15:26N 29°49' W 093°59'1 0.7
2015-Jan-19 14:20N 29°49' W 093°59'  

Dump ship's entire track history